Time;durP1;ratioP1;P1;durP2;ratioP2;P2;SDS_P1;SDS_P2;PMS_P1;PMS_P2;Temp;Humidity;BMP_temperature;BMP_pressure;BME280_temperature;BME280_humidity;BME280_pressure;Samples;Min_cycle;Max_cycle;Signal;HPM_P1;HPM_P2
2022/07/07 00:00:44;;;;;;;2.40;1.10;;;17.70;99.90;;;;;;4987184;28;20088;-74
2022/07/07 00:03:10;;;;;;;2.15;0.90;;;17.60;99.90;;;;;;4990389;28;20084;-74
2022/07/07 00:05:38;;;;;;;2.58;1.05;;;17.60;99.90;;;;;;4992458;28;20485;-74
2022/07/07 00:08:04;;;;;;;2.17;0.88;;;17.50;99.90;;;;;;4990835;28;20038;-74
2022/07/07 00:10:30;;;;;;;2.00;0.80;;;17.50;99.90;;;;;;4992205;28;20092;-75
2022/07/07 00:12:55;;;;;;;2.20;0.80;;;17.50;99.90;;;;;;4988695;28;20659;-74
2022/07/07 00:15:21;;;;;;;3.42;1.00;;;17.40;99.90;;;;;;4995167;28;20435;-75
2022/07/07 00:17:47;;;;;;;1.85;0.70;;;17.40;99.90;;;;;;4993519;28;20561;-75
2022/07/07 00:20:12;;;;;;;2.85;0.70;;;17.40;99.90;;;;;;4993527;28;20083;-74
2022/07/07 00:22:38;;;;;;;2.15;0.73;;;17.40;99.90;;;;;;4975206;28;20042;-73
2022/07/07 00:25:05;;;;;;;2.13;0.90;;;17.40;99.90;;;;;;4993315;28;20034;-75
2022/07/07 00:27:31;;;;;;;1.63;0.63;;;17.40;99.90;;;;;;4992807;28;20031;-75
2022/07/07 00:29:57;;;;;;;2.20;0.70;;;17.30;99.90;;;;;;4992919;28;20100;-74
2022/07/07 00:32:23;;;;;;;1.95;0.50;;;17.30;99.90;;;;;;4992177;28;20061;-74
2022/07/07 00:34:49;;;;;;;1.45;0.50;;;17.30;99.90;;;;;;4992696;28;20450;-75
2022/07/07 00:37:15;;;;;;;2.47;0.80;;;17.30;99.90;;;;;;4992270;28;20034;-75
2022/07/07 00:39:40;;;;;;;1.75;0.50;;;17.20;99.90;;;;;;4974468;28;20034;-74
2022/07/07 00:42:06;;;;;;;1.33;0.70;;;17.30;99.90;;;;;;4990916;28;20041;-74
2022/07/07 00:44:32;;;;;;;1.20;0.60;;;17.20;99.90;;;;;;4991067;28;20453;-74
2022/07/07 00:46:58;;;;;;;1.20;0.57;;;17.30;99.90;;;;;;4998354;28;20030;-74
2022/07/07 00:49:24;;;;;;;2.00;0.93;;;17.20;99.90;;;;;;4982226;28;20061;-75
2022/07/07 00:51:50;;;;;;;1.05;0.52;;;17.20;99.90;;;;;;4998595;28;20058;-74
2022/07/07 00:54:16;;;;;;;1.77;0.40;;;17.30;99.90;;;;;;4989386;28;20046;-73
2022/07/07 00:56:41;;;;;;;1.63;0.60;;;17.20;99.90;;;;;;4987343;28;20043;-74
2022/07/07 00:59:08;;;;;;;3.15;0.60;;;17.20;99.90;;;;;;4976014;28;20061;-74
2022/07/07 01:01:38;;;;;;;1.13;0.50;;;17.20;99.90;;;;;;4994486;28;20061;-74
2022/07/07 01:04:07;;;;;;;1.42;0.57;;;17.10;99.90;;;;;;4990589;28;20038;-73
2022/07/07 01:06:33;;;;;;;2.78;0.75;;;17.10;99.90;;;;;;4972027;28;20027;-73
2022/07/07 01:08:59;;;;;;;1.33;0.80;;;17.00;99.90;;;;;;4989682;28;20511;-74
2022/07/07 01:11:25;;;;;;;1.85;0.63;;;17.00;99.90;;;;;;4976206;28;20042;-74
2022/07/07 01:13:51;;;;;;;1.48;0.60;;;17.00;99.90;;;;;;4989471;28;20058;-73
2022/07/07 01:16:16;;;;;;;1.15;0.60;;;16.90;99.90;;;;;;4991285;28;20465;-74
2022/07/07 01:18:44;;;;;;;1.00;0.50;;;16.90;99.90;;;;;;4990442;28;20429;-74
2022/07/07 01:21:13;;;;;;;1.60;0.57;;;16.90;99.90;;;;;;4990146;28;20058;-74
2022/07/07 01:23:39;;;;;;;2.07;0.60;;;16.80;99.90;;;;;;4985053;28;20050;-74
2022/07/07 01:26:04;;;;;;;2.38;0.70;;;16.90;99.90;;;;;;4988775;28;20105;-74
2022/07/07 01:28:30;;;;;;;1.30;0.68;;;16.80;99.90;;;;;;4993675;28;20129;-73
2022/07/07 01:30:58;;;;;;;1.00;0.52;;;16.70;99.90;;;;;;4994290;28;20022;-74
2022/07/07 01:33:24;;;;;;;2.33;0.80;;;16.80;99.90;;;;;;4989159;28;20057;-74
2022/07/07 01:35:50;;;;;;;2.22;0.73;;;16.70;99.90;;;;;;4991863;28;20031;-74
2022/07/07 01:38:16;;;;;;;1.90;0.68;;;16.70;99.90;;;;;;4990085;28;20671;-74
2022/07/07 01:40:43;;;;;;;0.80;0.50;;;16.70;99.90;;;;;;4987102;28;20069;-74
2022/07/07 01:43:08;;;;;;;1.58;0.50;;;16.70;99.90;;;;;;4991190;28;20057;-74
2022/07/07 01:45:34;;;;;;;1.20;0.60;;;16.70;99.90;;;;;;4978953;28;20042;-74
2022/07/07 01:48:00;;;;;;;1.40;0.65;;;16.70;99.90;;;;;;4976456;28;20030;-75
2022/07/07 01:50:25;;;;;;;2.65;0.60;;;16.60;99.90;;;;;;4973739;28;20033;-74
2022/07/07 01:52:51;;;;;;;1.13;0.70;;;16.60;99.90;;;;;;5004050;28;20049;-74
2022/07/07 01:55:17;;;;;;;2.15;0.73;;;16.70;99.90;;;;;;4989587;28;20432;-74
2022/07/07 01:57:42;;;;;;;1.75;0.65;;;16.70;99.90;;;;;;4992583;28;20042;-75
2022/07/07 02:00:09;;;;;;;2.15;0.68;;;16.80;99.90;;;;;;4976725;28;20429;-74
2022/07/07 02:02:34;;;;;;;1.45;0.68;;;16.80;99.90;;;;;;4995060;28;20181;-74
2022/07/07 02:05:00;;;;;;;2.60;0.70;;;16.80;99.90;;;;;;4988426;28;20516;-74
2022/07/07 02:07:26;;;;;;;1.75;0.80;;;16.80;99.90;;;;;;4979711;28;20089;-74
2022/07/07 02:09:51;;;;;;;2.45;0.80;;;16.80;99.90;;;;;;4995298;28;20033;-74
2022/07/07 02:12:18;;;;;;;2.55;0.80;;;16.80;99.90;;;;;;4992603;28;20492;-74
2022/07/07 02:14:43;;;;;;;1.25;0.60;;;16.80;99.90;;;;;;5002826;28;20852;-73
2022/07/07 02:17:09;;;;;;;0.98;0.70;;;16.80;99.90;;;;;;4977144;28;20034;-74
2022/07/07 02:19:35;;;;;;;1.20;0.80;;;16.80;99.90;;;;;;4990793;28;20054;-74
2022/07/07 02:22:01;;;;;;;0.70;0.50;;;16.80;99.90;;;;;;4975524;28;20131;-74
2022/07/07 02:24:26;;;;;;;1.90;0.65;;;16.80;99.90;;;;;;4992392;28;20396;-75
2022/07/07 02:26:52;;;;;;;1.33;0.77;;;16.80;99.90;;;;;;4988421;28;20038;-75
2022/07/07 02:29:18;;;;;;;1.42;0.70;;;16.80;99.90;;;;;;4988464;28;20040;-74
2022/07/07 02:31:43;;;;;;;1.63;0.80;;;16.80;99.90;;;;;;4985569;28;20073;-74
2022/07/07 02:34:09;;;;;;;2.80;0.80;;;16.80;99.90;;;;;;4976374;28;20053;-74
2022/07/07 02:36:34;;;;;;;2.00;0.75;;;16.80;99.90;;;;;;4992405;28;20038;-74
2022/07/07 02:39:00;;;;;;;2.30;0.80;;;16.80;99.90;;;;;;4985751;28;20034;-75
2022/07/07 02:41:26;;;;;;;2.10;0.70;;;16.80;99.90;;;;;;4975282;28;20058;-74
2022/07/07 02:43:51;;;;;;;1.95;0.82;;;16.80;99.90;;;;;;4997106;28;20042;-75
2022/07/07 02:46:17;;;;;;;2.45;0.80;;;16.80;99.90;;;;;;4988330;28;20030;-74
2022/07/07 02:48:43;;;;;;;1.52;0.80;;;16.80;99.90;;;;;;4988016;28;20042;-74
2022/07/07 02:51:08;;;;;;;1.50;0.80;;;16.80;99.90;;;;;;4973554;28;20042;-74
2022/07/07 02:53:35;;;;;;;1.67;0.82;;;16.80;99.90;;;;;;4970036;28;20072;-75
2022/07/07 02:56:01;;;;;;;1.77;0.73;;;16.80;99.90;;;;;;4987801;28;20034;-75
2022/07/07 02:58:27;;;;;;;1.45;0.82;;;16.80;99.90;;;;;;4986767;28;20031;-74
2022/07/07 03:00:54;;;;;;;2.05;0.90;;;16.80;99.90;;;;;;4988916;28;20073;-75
2022/07/07 03:03:20;;;;;;;1.70;0.60;;;16.80;99.90;;;;;;4976141;28;20124;-75
2022/07/07 03:05:46;;;;;;;2.22;0.88;;;16.80;99.90;;;;;;4990744;28;20034;-74
2022/07/07 03:08:12;;;;;;;1.48;0.80;;;16.70;99.90;;;;;;4972083;28;20036;-74
2022/07/07 03:10:38;;;;;;;2.50;0.70;;;16.70;99.90;;;;;;4972444;28;20030;-74
2022/07/07 03:13:04;;;;;;;1.17;0.73;;;16.70;99.90;;;;;;4984640;28;20039;-74
2022/07/07 03:15:29;;;;;;;2.35;0.80;;;16.70;99.90;;;;;;4984470;28;20041;-74
2022/07/07 03:17:56;;;;;;;1.80;0.85;;;16.60;99.90;;;;;;5002348;28;20066;-74
2022/07/07 03:20:22;;;;;;;3.17;0.98;;;16.60;99.90;;;;;;4971268;28;20042;-74
2022/07/07 03:22:48;;;;;;;2.95;1.15;;;16.50;99.90;;;;;;4992405;28;20038;-75
2022/07/07 03:25:14;;;;;;;1.45;0.70;;;16.50;99.90;;;;;;4979171;28;20061;-74
2022/07/07 03:27:40;;;;;;;2.72;0.80;;;16.50;99.90;;;;;;4981676;28;20150;-74
2022/07/07 03:30:08;;;;;;;2.90;0.85;;;16.50;99.90;;;;;;4992335;28;20053;-74
2022/07/07 03:32:34;;;;;;;2.88;0.85;;;16.40;99.90;;;;;;4988584;28;20089;-75
2022/07/07 03:35:00;;;;;;;2.17;0.93;;;16.40;99.90;;;;;;4986271;28;20026;-75
2022/07/07 03:37:26;;;;;;;2.40;0.90;;;16.40;99.90;;;;;;4986389;28;20480;-75
2022/07/07 03:39:52;;;;;;;3.50;1.00;;;16.30;99.90;;;;;;4988320;28;20062;-74
2022/07/07 03:42:18;;;;;;;2.70;1.00;;;16.30;99.90;;;;;;4987783;28;20061;-74
2022/07/07 03:44:44;;;;;;;2.42;0.88;;;16.30;99.90;;;;;;4976486;28;20034;-75
2022/07/07 03:47:11;;;;;;;1.75;0.85;;;16.20;99.90;;;;;;4977474;28;20035;-74
2022/07/07 03:49:37;;;;;;;2.03;1.00;;;16.20;99.90;;;;;;4978180;28;20038;-74
2022/07/07 03:52:03;;;;;;;2.95;1.17;;;16.20;99.90;;;;;;4973504;28;20026;-75
2022/07/07 03:54:29;;;;;;;2.75;1.10;;;16.20;99.90;;;;;;4976351;28;20037;-75
2022/07/07 03:56:55;;;;;;;2.80;1.27;;;16.20;99.90;;;;;;4975904;28;20034;-74
2022/07/07 03:59:20;;;;;;;3.40;1.15;;;16.20;99.90;;;;;;4990589;28;20035;-75
2022/07/07 04:01:46;;;;;;;3.17;1.20;;;16.20;99.90;;;;;;4988282;28;20030;-75
2022/07/07 04:04:12;;;;;;;3.17;1.20;;;16.10;99.90;;;;;;4990841;28;20053;-75
2022/07/07 04:06:38;;;;;;;3.28;1.15;;;16.20;99.90;;;;;;4972259;28;20053;-75
2022/07/07 04:09:05;;;;;;;2.53;1.20;;;16.10;99.90;;;;;;4990900;28;20042;-74
2022/07/07 04:11:30;;;;;;;3.42;1.20;;;16.10;99.90;;;;;;4991885;28;20444;-75
2022/07/07 04:13:56;;;;;;;2.28;1.00;;;16.10;99.90;;;;;;4992929;28;20493;-75
2022/07/07 04:16:22;;;;;;;4.18;1.20;;;16.10;99.90;;;;;;4975062;28;20117;-75
2022/07/07 04:18:47;;;;;;;3.72;1.35;;;16.20;99.90;;;;;;4990271;28;20088;-75
2022/07/07 04:21:13;;;;;;;2.15;1.00;;;16.20;99.90;;;;;;4992284;28;20451;-74
2022/07/07 04:23:38;;;;;;;2.83;1.13;;;16.20;99.90;;;;;;4987577;28;20053;-74
2022/07/07 04:26:04;;;;;;;2.72;1.20;;;16.20;99.90;;;;;;4978053;28;20090;-75
2022/07/07 04:28:30;;;;;;;2.33;1.27;;;16.20;99.90;;;;;;4979800;28;20041;-75
2022/07/07 04:30:56;;;;;;;4.15;1.20;;;16.30;99.90;;;;;;4981105;28;20025;-76
2022/07/07 04:33:22;;;;;;;3.05;1.25;;;16.30;99.90;;;;;;4991382;28;20141;-75
2022/07/07 04:35:48;;;;;;;2.15;1.08;;;16.30;99.90;;;;;;4978847;28;20026;-75
2022/07/07 04:38:14;;;;;;;3.97;1.10;;;16.40;99.90;;;;;;4991397;28;20131;-76
2022/07/07 04:40:40;;;;;;;3.08;1.33;;;16.40;99.90;;;;;;4990309;28;20536;-75
2022/07/07 04:43:06;;;;;;;2.35;1.17;;;16.40;99.90;;;;;;4991642;28;20505;-75
2022/07/07 04:45:31;;;;;;;2.75;1.42;;;16.50;99.90;;;;;;4996591;28;20123;-75
2022/07/07 04:47:57;;;;;;;4.78;1.40;;;16.50;99.90;;;;;;4977669;28;20537;-74
2022/07/07 04:50:23;;;;;;;2.40;1.40;;;16.50;99.90;;;;;;4993294;28;20734;-75
2022/07/07 04:52:48;;;;;;;3.08;1.50;;;16.50;99.90;;;;;;4976211;28;20613;-73
2022/07/07 04:55:14;;;;;;;3.30;1.42;;;16.60;99.90;;;;;;4989335;28;20030;-73
2022/07/07 04:57:40;;;;;;;4.75;1.25;;;16.60;99.90;;;;;;4990555;28;20034;-74
2022/07/07 05:00:06;;;;;;;3.67;1.52;;;16.60;99.90;;;;;;4989588;28;20030;-74
2022/07/07 05:02:32;;;;;;;4.45;1.52;;;16.70;99.90;;;;;;5003892;28;20031;-74
2022/07/07 05:04:58;;;;;;;2.38;1.10;;;16.70;99.90;;;;;;4973985;28;20030;-75
2022/07/07 05:07:23;;;;;;;3.63;1.67;;;16.70;99.90;;;;;;4989086;28;20146;-74
2022/07/07 05:09:49;;;;;;;4.35;1.65;;;16.80;99.90;;;;;;4976123;28;20520;-74
2022/07/07 05:12:15;;;;;;;4.28;1.70;;;16.80;99.90;;;;;;4988286;28;20038;-74
2022/07/07 05:14:42;;;;;;;4.93;1.65;;;16.80;99.90;;;;;;4977737;28;20060;-76
2022/07/07 05:17:07;;;;;;;4.82;1.67;;;16.80;99.90;;;;;;4991612;28;20026;-75
2022/07/07 05:19:33;;;;;;;4.30;1.77;;;16.80;99.90;;;;;;4990834;28;21478;-74
2022/07/07 05:21:59;;;;;;;3.90;1.83;;;16.80;99.90;;;;;;4974573;28;20108;-73
2022/07/07 05:24:24;;;;;;;4.22;1.30;;;16.90;99.90;;;;;;4991817;28;20137;-74
2022/07/07 05:26:50;;;;;;;3.53;1.60;;;16.90;99.90;;;;;;4988933;28;20026;-74
2022/07/07 05:29:15;;;;;;;3.75;1.65;;;16.90;99.90;;;;;;4989848;28;20022;-74
2022/07/07 05:31:41;;;;;;;4.90;1.70;;;16.90;99.90;;;;;;4988799;28;20477;-74
2022/07/07 05:34:07;;;;;;;3.90;1.40;;;16.90;99.90;;;;;;4973353;28;20078;-73
2022/07/07 05:36:33;;;;;;;3.50;1.63;;;16.90;99.90;;;;;;4988657;28;20065;-73
2022/07/07 05:39:00;;;;;;;4.15;1.48;;;16.90;99.90;;;;;;4987459;28;20506;-74
2022/07/07 05:41:26;;;;;;;3.80;1.38;;;16.90;99.90;;;;;;4988526;28;20089;-76
2022/07/07 05:43:51;;;;;;;3.60;1.40;;;16.90;99.90;;;;;;4971179;28;20050;-74
2022/07/07 05:46:17;;;;;;;3.75;1.42;;;16.90;99.90;;;;;;4989973;28;20073;-75
2022/07/07 05:48:43;;;;;;;4.18;1.70;;;17.00;99.90;;;;;;4994541;28;20030;-73
2022/07/07 05:51:08;;;;;;;3.15;1.50;;;17.00;99.90;;;;;;4995076;28;20041;-75
2022/07/07 05:53:34;;;;;;;4.82;1.48;;;17.00;99.90;;;;;;4998216;28;20049;-73
2022/07/07 05:56:00;;;;;;;3.40;1.30;;;17.00;99.90;;;;;;4991664;28;20065;-75
2022/07/07 05:58:25;;;;;;;3.95;1.38;;;17.10;99.90;;;;;;4989021;28;20456;-74
2022/07/07 06:00:51;;;;;;;4.13;1.60;;;17.10;99.90;;;;;;4983276;28;20042;-74
2022/07/07 06:03:17;;;;;;;3.03;1.23;;;17.10;99.90;;;;;;4980576;28;20040;-74
2022/07/07 06:05:43;;;;;;;4.93;1.60;;;17.10;99.90;;;;;;5001278;28;20037;-74
2022/07/07 06:08:09;;;;;;;5.93;1.88;;;17.10;99.90;;;;;;4998761;28;20048;-73
2022/07/07 06:10:36;;;;;;;3.47;1.45;;;17.20;99.90;;;;;;4997096;28;20041;-75
2022/07/07 06:13:02;;;;;;;4.07;1.48;;;17.10;99.90;;;;;;4997773;28;20034;-74
2022/07/07 06:15:30;;;;;;;3.38;1.60;;;17.20;99.90;;;;;;4990940;28;20033;-75
2022/07/07 06:17:56;;;;;;;4.05;1.55;;;17.20;99.90;;;;;;5000386;28;20121;-76
2022/07/07 06:20:22;;;;;;;3.67;1.55;;;17.20;99.90;;;;;;4996473;28;20117;-74
2022/07/07 06:22:47;;;;;;;3.90;1.40;;;17.20;99.90;;;;;;4972655;28;20064;-74
2022/07/07 06:25:13;;;;;;;3.55;1.30;;;17.20;99.90;;;;;;4989441;28;20464;-75
2022/07/07 06:27:39;;;;;;;2.55;1.23;;;17.20;99.90;;;;;;4988312;28;20066;-75
2022/07/07 06:30:05;;;;;;;3.15;1.30;;;17.20;99.90;;;;;;4987836;28;20042;-74
2022/07/07 06:32:31;;;;;;;2.90;1.33;;;17.20;99.90;;;;;;4982892;28;20072;-75
2022/07/07 06:34:57;;;;;;;3.08;1.00;;;17.30;99.90;;;;;;4966185;28;20038;-73
2022/07/07 06:37:23;;;;;;;2.60;0.82;;;17.30;99.90;;;;;;4988744;28;20048;-74
2022/07/07 06:39:49;;;;;;;2.58;1.05;;;17.40;99.90;;;;;;4989675;28;20049;-74
2022/07/07 06:42:15;;;;;;;2.35;1.00;;;17.40;99.90;;;;;;4984993;28;20034;-75
2022/07/07 06:44:41;;;;;;;3.17;1.30;;;17.40;99.90;;;;;;4988435;28;20046;-75
2022/07/07 06:47:07;;;;;;;2.33;1.00;;;17.50;99.90;;;;;;4988660;28;20052;-75
2022/07/07 06:49:33;;;;;;;2.20;1.20;;;17.50;99.90;;;;;;4981001;28;20038;-75
2022/07/07 06:51:59;;;;;;;6.00;1.58;;;17.50;99.90;;;;;;4970099;28;20092;-75
2022/07/07 06:54:25;;;;;;;2.25;1.02;;;17.50;99.90;;;;;;4983420;28;20117;-75
2022/07/07 06:56:50;;;;;;;2.15;0.88;;;17.50;99.90;;;;;;4986876;28;20401;-75
2022/07/07 06:59:17;;;;;;;2.22;0.90;;;17.60;99.90;;;;;;4994634;28;20038;-74
2022/07/07 07:01:42;;;;;;;3.72;1.05;;;17.60;99.90;;;;;;4987463;28;20041;-73
2022/07/07 07:04:09;;;;;;;2.22;1.10;;;17.60;99.90;;;;;;4990788;28;20034;-74
2022/07/07 07:06:35;;;;;;;2.47;0.98;;;17.60;99.90;;;;;;4987995;28;20034;-74
2022/07/07 07:09:02;;;;;;;3.05;1.13;;;17.60;99.90;;;;;;4985141;28;20027;-74
2022/07/07 07:11:28;;;;;;;3.00;1.10;;;17.60;99.90;;;;;;5002209;28;20033;-74
2022/07/07 07:13:56;;;;;;;3.60;1.15;;;17.60;99.90;;;;;;4996261;28;20039;-75
2022/07/07 07:16:22;;;;;;;2.97;1.15;;;17.70;99.90;;;;;;4989164;28;20031;-75
2022/07/07 07:18:48;;;;;;;3.40;1.10;;;17.60;99.90;;;;;;4991957;28;20448;-74
2022/07/07 07:21:13;;;;;;;2.75;1.10;;;17.70;99.90;;;;;;4992847;28;20030;-74
2022/07/07 07:23:39;;;;;;;3.92;1.42;;;17.70;99.90;;;;;;4984318;28;20042;-74
2022/07/07 07:26:06;;;;;;;2.88;1.20;;;17.70;99.90;;;;;;4987625;28;20597;-74
2022/07/07 07:28:33;;;;;;;3.45;1.27;;;17.70;99.90;;;;;;4988920;28;20038;-75
2022/07/07 07:30:59;;;;;;;3.42;1.45;;;17.70;99.90;;;;;;4987881;28;20034;-74
2022/07/07 07:33:24;;;;;;;3.22;1.40;;;17.70;99.90;;;;;;4989385;28;20058;-74
2022/07/07 07:35:50;;;;;;;5.10;1.67;;;17.70;99.90;;;;;;5006784;28;20037;-74
2022/07/07 07:38:16;;;;;;;3.92;1.38;;;17.60;99.90;;;;;;4976620;28;20084;-74
2022/07/07 07:40:42;;;;;;;4.28;1.40;;;17.70;99.90;;;;;;4983386;28;20034;-74
2022/07/07 07:43:07;;;;;;;3.60;1.30;;;17.60;99.90;;;;;;4994892;28;20038;-75
2022/07/07 07:45:33;;;;;;;3.95;1.20;;;17.60;99.90;;;;;;4991384;28;20037;-74
2022/07/07 07:48:01;;;;;;;3.80;1.50;;;17.60;99.90;;;;;;4991874;28;20655;-75
2022/07/07 07:50:28;;;;;;;4.05;1.30;;;17.60;99.90;;;;;;4990809;28;20110;-75
2022/07/07 07:52:54;;;;;;;4.28;1.48;;;17.60;99.90;;;;;;4990625;28;20044;-74
2022/07/07 07:55:20;;;;;;;5.57;1.77;;;17.50;99.90;;;;;;4991639;28;20050;-74
2022/07/07 07:57:46;;;;;;;6.53;1.70;;;17.60;99.90;;;;;;4990355;28;20038;-75
2022/07/07 08:00:15;;;;;;;3.45;1.40;;;17.50;99.90;;;;;;4973196;28;20101;-74
2022/07/07 08:02:40;;;;;;;2.70;1.20;;;17.60;99.90;;;;;;4975345;28;20042;-74
2022/07/07 08:05:07;;;;;;;4.13;1.48;;;17.60;99.90;;;;;;4988858;28;20057;-75
2022/07/07 08:07:32;;;;;;;4.50;1.40;;;17.60;99.90;;;;;;4989760;28;20030;-74
2022/07/07 08:09:59;;;;;;;3.30;1.25;;;17.60;99.90;;;;;;4981572;28;20093;-74
2022/07/07 08:19:47;;;;;;;3.13;1.00;;;17.80;99.90;;;;;;4988684;28;20118;-74
2022/07/07 08:40:08;;;;;;;4.32;1.20;;;18.30;99.90;;;;;;4977467;28;20046;-75
2022/07/07 08:56:53;;;;;;;2.50;0.80;;;18.40;99.90;;;;;;4990781;28;20091;-75
2022/07/07 09:03:21;;;;;;;3.65;1.23;;;18.50;99.90;;;;;;4968876;28;20036;-75
2022/07/07 09:09:46;;;;;;;4.20;1.30;;;18.60;99.90;;;;;;4975513;28;20433;-75
2022/07/07 09:16:04;;;;;;;4.40;1.10;;;18.50;99.90;;;;;;4990237;28;20096;-74
2022/07/07 09:25:55;;;;;;;3.65;1.40;;;18.50;99.90;;;;;;4983511;28;20247;-74
2022/07/07 09:32:09;;;;;;;3.35;1.42;;;18.60;99.90;;;;;;4990364;28;20045;-73
2022/07/07 09:45:13;;;;;;;3.35;1.17;;;18.70;99.90;;;;;;4988981;28;20049;-72
2022/07/07 09:48:24;;;;;;;4.30;1.40;;;18.80;99.90;;;;;;4988211;28;20531;-73
2022/07/07 09:54:44;;;;;;;3.85;1.40;;;18.80;99.90;;;;;;4989717;28;20136;-73
2022/07/07 10:03:57;;;;;;;4.68;1.80;;;18.80;99.90;;;;;;4976053;28;20097;-74
2022/07/07 10:13:31;;;;;;;4.00;1.50;;;19.00;99.90;;;;;;4989476;28;20061;-75
2022/07/07 10:20:03;;;;;;;4.57;1.60;;;19.10;99.90;;;;;;4980474;28;20053;-75
2022/07/07 10:22:33;;;;;;;5.72;2.13;;;19.10;99.90;;;;;;4994050;28;20038;-73
2022/07/07 10:32:28;;;;;;;3.25;1.42;;;19.10;99.90;;;;;;4986965;28;20033;-75
2022/07/07 10:49:10;;;;;;;3.55;1.38;;;19.30;99.90;;;;;;4971158;28;20581;-74
2022/07/07 11:05:29;;;;;;;3.92;1.40;;;19.30;99.90;;;;;;4978741;28;20054;-74
2022/07/07 11:29:13;;;;;;;2.70;1.10;;;19.70;99.40;;;;;;4965847;28;20101;-75
2022/07/07 11:39:02;;;;;;;4.88;1.30;;;19.50;99.50;;;;;;4988716;28;20033;-73
2022/07/07 11:53:00;;;;;;;4.80;1.20;;;19.60;99.50;;;;;;4976581;28;20048;-73
2022/07/07 12:06:17;;;;;;;4.72;1.17;;;19.80;99.00;;;;;;4983338;28;20523;-74
2022/07/07 12:16:26;;;;;;;5.38;1.30;;;19.90;98.70;;;;;;4984235;28;20106;-74
2022/07/07 12:25:12;;;;;;;3.08;1.42;;;19.80;99.80;;;;;;4990982;28;19998;-73
2022/07/07 12:27:57;;;;;;;3.17;1.40;;;19.80;99.80;;;;;;4986049;28;21319;-74
2022/07/07 12:30:26;;;;;;;3.85;1.30;;;19.70;99.20;;;;;;4977624;28;20159;-74
2022/07/07 12:32:52;;;;;;;3.88;1.40;;;19.70;99.60;;;;;;5017112;28;20577;-75
2022/07/07 12:35:33;;;;;;;3.95;1.17;;;19.70;99.90;;;;;;5008988;28;20030;-74
2022/07/07 12:38:00;;;;;;;3.50;1.10;;;19.60;99.90;;;;;;4992794;28;20519;-74
2022/07/07 12:40:27;;;;;;;4.03;1.38;;;19.70;99.90;;;;;;5010352;28;20666;-74
2022/07/07 12:42:54;;;;;;;3.63;1.30;;;19.70;99.70;;;;;;5009806;28;20057;-74
2022/07/07 12:45:20;;;;;;;2.20;1.05;;;19.70;99.60;;;;;;5008871;28;20037;-75
2022/07/07 12:47:51;;;;;;;4.97;1.60;;;19.70;99.50;;;;;;5010436;28;20543;-75
2022/07/07 12:50:18;;;;;;;4.18;1.55;;;19.80;99.20;;;;;;5010273;28;20034;-74
2022/07/07 12:52:58;;;;;;;4.03;1.40;;;19.80;98.90;;;;;;5010142;28;20727;-75
2022/07/07 12:55:36;;;;;;;3.75;1.10;;;19.80;98.80;;;;;;5010221;28;20026;-75
2022/07/07 12:58:12;;;;;;;3.60;1.20;;;19.80;99.20;;;;;;5010082;28;20065;-74
2022/07/07 13:00:39;;;;;;;2.67;1.10;;;20.00;99.30;;;;;;5009853;28;20524;-74
2022/07/07 13:03:05;;;;;;;5.88;1.30;;;20.00;99.00;;;;;;5009947;28;20041;-74
2022/07/07 13:05:30;;;;;;;4.93;1.30;;;20.10;99.20;;;;;;5009634;28;20421;-75
2022/07/07 13:07:56;;;;;;;4.90;1.55;;;20.10;99.00;;;;;;5008141;28;20041;-74
2022/07/07 13:10:24;;;;;;;4.47;1.30;;;20.10;99.00;;;;;;5010053;28;20030;-74
2022/07/07 13:12:50;;;;;;;5.70;1.40;;;20.20;99.20;;;;;;5010151;28;20038;-74
2022/07/07 13:15:16;;;;;;;5.47;1.40;;;20.30;98.80;;;;;;5024205;28;20064;-74
2022/07/07 13:17:44;;;;;;;4.47;1.70;;;20.50;98.80;;;;;;5009703;28;20037;-74
2022/07/07 13:20:12;;;;;;;4.63;1.80;;;20.60;98.50;;;;;;5009708;28;20041;-73
2022/07/07 13:22:41;;;;;;;5.25;2.00;;;20.70;97.90;;;;;;5009573;28;20049;-74
2022/07/07 13:25:07;;;;;;;3.88;1.40;;;20.80;97.70;;;;;;5009608;28;20041;-73
2022/07/07 13:27:34;;;;;;;3.75;1.30;;;20.80;97.60;;;;;;5011874;28;20048;-74
2022/07/07 13:30:00;;;;;;;5.22;1.35;;;20.80;96.60;;;;;;5029191;28;20037;-73
2022/07/07 13:32:26;;;;;;;3.78;1.40;;;20.80;96.90;;;;;;5029116;28;20033;-74
2022/07/07 13:34:52;;;;;;;3.55;1.30;;;20.80;96.60;;;;;;5029276;28;20085;-73
2022/07/07 13:37:18;;;;;;;4.15;1.20;;;20.90;97.00;;;;;;5029332;28;20061;-73
2022/07/07 13:39:43;;;;;;;4.18;1.25;;;21.10;96.80;;;;;;5024609;28;20044;-74
2022/07/07 13:42:10;;;;;;;2.00;0.90;;;21.50;96.50;;;;;;5011245;28;20034;-75
2022/07/07 13:44:36;;;;;;;3.92;1.00;;;21.80;95.60;;;;;;5028793;28;20042;-73
2022/07/07 13:47:02;;;;;;;2.45;1.05;;;22.10;94.30;;;;;;4991271;28;20045;-73
2022/07/07 13:49:27;;;;;;;3.53;1.30;;;22.10;93.30;;;;;;5026817;28;20025;-73
2022/07/07 13:51:54;;;;;;;2.38;1.15;;;22.00;93.50;;;;;;5028946;28;20383;-74
2022/07/07 13:54:19;;;;;;;4.03;1.15;;;21.90;93.00;;;;;;5029042;28;20099;-74
2022/07/07 13:56:45;;;;;;;3.35;1.10;;;21.90;93.20;;;;;;5024529;28;20418;-74
2022/07/07 13:59:11;;;;;;;3.13;0.88;;;22.00;93.60;;;;;;5018345;28;20715;-74
2022/07/07 14:01:38;;;;;;;2.55;1.10;;;22.10;93.00;;;;;;5022299;28;20040;-74
2022/07/07 14:04:04;;;;;;;2.78;1.15;;;22.20;92.30;;;;;;5010688;28;20230;-75
2022/07/07 14:06:30;;;;;;;4.00;1.20;;;22.40;92.70;;;;;;5028529;28;20025;-75
2022/07/07 14:08:56;;;;;;;2.80;0.90;;;22.60;91.00;;;;;;5028792;28;20041;-74
2022/07/07 14:11:22;;;;;;;2.40;0.88;;;22.70;90.10;;;;;;5028614;28;20041;-75
2022/07/07 14:13:48;;;;;;;2.78;1.00;;;22.80;90.50;;;;;;5006488;28;20390;-74
2022/07/07 14:16:14;;;;;;;3.63;1.13;;;22.80;90.00;;;;;;5017826;28;20048;-75
2022/07/07 14:18:40;;;;;;;3.05;1.20;;;22.80;90.30;;;;;;5021574;28;20077;-74
2022/07/07 14:21:05;;;;;;;2.78;1.10;;;22.70;91.40;;;;;;5010599;28;20095;-74
2022/07/07 14:23:31;;;;;;;3.80;1.38;;;22.60;90.70;;;;;;5027971;28;20038;-75
2022/07/07 14:25:57;;;;;;;4.15;1.40;;;22.60;90.20;;;;;;5009763;28;20036;-74
2022/07/07 14:28:23;;;;;;;2.35;1.40;;;22.90;91.00;;;;;;5006344;28;20522;-75
2022/07/07 14:30:50;;;;;;;5.35;1.85;;;23.00;90.70;;;;;;4991489;28;20033;-76
2022/07/07 14:33:15;;;;;;;4.93;1.95;;;23.30;87.90;;;;;;5005542;28;20416;-75
2022/07/07 14:35:41;;;;;;;3.15;1.45;;;23.50;87.30;;;;;;5019756;28;20038;-75
2022/07/07 14:38:07;;;;;;;3.30;1.23;;;23.80;87.50;;;;;;5008269;28;20405;-75
2022/07/07 14:40:32;;;;;;;4.88;1.40;;;24.10;85.30;;;;;;5013041;28;20112;-74
2022/07/07 14:42:58;;;;;;;4.32;1.50;;;24.30;78.60;;;;;;5015946;28;20026;-74
2022/07/07 14:45:24;;;;;;;2.80;1.10;;;24.10;78.50;;;;;;5013413;28;20129;-74
2022/07/07 14:47:50;;;;;;;3.50;1.38;;;23.90;82.30;;;;;;5014843;28;20811;-74
2022/07/07 14:50:16;;;;;;;2.60;1.10;;;23.60;77.00;;;;;;5022892;28;20029;-74
2022/07/07 14:52:42;;;;;;;4.85;1.35;;;23.20;81.50;;;;;;5021734;28;20040;-74
2022/07/07 14:55:08;;;;;;;3.00;1.20;;;23.10;84.00;;;;;;5013926;28;20029;-74
2022/07/07 14:57:34;;;;;;;4.57;1.25;;;23.20;84.40;;;;;;5018328;28;20037;-73
2022/07/07 14:59:59;;;;;;;3.63;1.20;;;23.50;86.10;;;;;;5010093;28;20022;-74
2022/07/07 15:02:25;;;;;;;4.78;1.25;;;23.60;79.20;;;;;;5018997;28;20053;-74
2022/07/07 15:04:51;;;;;;;4.00;1.27;;;23.40;80.30;;;;;;5005146;28;20041;-75
2022/07/07 15:07:17;;;;;;;6.28;1.27;;;23.30;79.50;;;;;;5007561;28;20104;-72
2022/07/07 15:09:42;;;;;;;3.00;1.15;;;23.00;83.90;;;;;;5012770;28;20120;-74
2022/07/07 15:12:10;;;;;;;3.53;1.05;;;22.80;85.20;;;;;;4999184;28;20037;-74
2022/07/07 15:14:36;;;;;;;3.72;1.30;;;22.90;86.10;;;;;;5003673;28;20056;-74
2022/07/07 15:17:03;;;;;;;2.92;1.33;;;22.90;86.00;;;;;;5007715;28;20026;-75
2022/07/07 15:19:28;;;;;;;2.00;1.00;;;23.10;83.90;;;;;;5008185;28;20092;-75
2022/07/07 15:21:54;;;;;;;2.60;1.23;;;23.30;84.60;;;;;;5002953;28;20034;-75
2022/07/07 15:24:20;;;;;;;2.80;1.05;;;23.50;83.30;;;;;;4997589;28;20131;-74
2022/07/07 15:26:46;;;;;;;4.18;1.20;;;23.70;77.70;;;;;;5016765;28;20796;-74
2022/07/07 15:29:12;;;;;;;4.40;1.33;;;23.80;81.60;;;;;;5006365;28;20050;-74
2022/07/07 15:31:37;;;;;;;5.70;1.35;;;23.70;78.50;;;;;;5012831;28;20088;-74
2022/07/07 15:34:04;;;;;;;3.85;1.23;;;23.40;74.90;;;;;;5006579;28;20033;-75
2022/07/07 15:36:29;;;;;;;6.35;1.50;;;23.10;80.60;;;;;;5009379;28;20407;-75
2022/07/07 15:38:56;;;;;;;2.50;1.00;;;23.00;83.90;;;;;;5019632;28;20033;-75
2022/07/07 15:41:23;;;;;;;2.42;1.02;;;23.00;85.10;;;;;;5025238;28;20037;-75
2022/07/07 15:43:49;;;;;;;2.85;1.10;;;22.90;82.60;;;;;;5025479;28;20064;-75
2022/07/07 15:46:16;;;;;;;2.40;1.23;;;23.00;81.90;;;;;;5002662;28;20460;-74
2022/07/07 15:48:44;;;;;;;3.20;1.35;;;23.20;78.10;;;;;;5011213;28;20034;-73
2022/07/07 15:51:12;;;;;;;3.40;1.10;;;23.50;80.50;;;;;;5008508;28;20033;-73
2022/07/07 15:53:38;;;;;;;2.30;1.20;;;23.90;83.70;;;;;;5011005;28;20038;-75
2022/07/07 15:56:04;;;;;;;4.40;1.00;;;24.50;74.80;;;;;;5009794;28;20029;-75
2022/07/07 15:58:30;;;;;;;3.30;1.13;;;25.00;71.10;;;;;;5019446;28;20093;-75